Terminal Aerodrome Forecast
Issued by NWS Pittsburgh, PA

Current Version | Previous Version | Graphics & Text | Print | Product List | Glossary On
Versions: 1 2 3 4 5 6 7 8 9 10 11 12 13 14 15 16 17 18 19 20 21 22 23 24 25 26 27 28 29 30 31 32
000
FTUS41 KPBZ 311600 AAB
TAFPIT
TAF AMD
KPIT 311614Z 3116/0118 21005KT P6SM SHRA SCT008 BKN050
     FM312000 21008KT 5SM -SHRA VCTS OVC025CB
     FM312300 20005KT 6SM -SHRA BR OVC020
     FM010600 20005KT 4SM BR OVC008
     FM011500 23005KT P6SM BKN015=

USA.gov is the U.S. government's official web portal to all federal, state and local government web resources and services.